Ever Diamond — 3FQS8 — position and weather

sailwx.info

Track history (hours):
 
Tides and Currents Weather Stations Pressure Air Temp Water Temp Dewpoint Dewpoint Depression Visibility Wind Speed Wind Dir Waves Ship Positions

Ever Diamond

Last reported at 2016-Sep-06 17:33 UTC. Time now 2016-Oct-01 12:03 UTC.
Position N 01°53' E 102°21'.
Warning: this ship's position is 24 days out of date.

Type: Ship (hazmat cat D). MMSI: 354893000.

Date/timePositionNaut miles runAvg speedWind from/ knotsBaromVisibWave heightAir tempDewpointWater temp
2016-Sep-06 17:33N 01°53' E 102°21'1312.7
2016-Sep-06 16:32N 01°48' E 102°33'7612.7
2016-Sep-06 10:33N 01°13' E 103°40'7 7.0
2016-Sep-06 09:33N 01°17' E 103°46'0 0.1
2016-Sep-06 08:33N 01°17' E 103°46'0 0.1
2016-Sep-06 07:33N 01°17' E 103°46'0 0.0
2016-Sep-06 06:33N 01°17' E 103°46'0 0.0
2016-Sep-06 04:15N 01°17' E 103°46'0 0.0
2016-Sep-06 03:18N 01°17' E 103°46'0 0.1
2016-Sep-06 02:24N 01°17' E 103°46'0 0.1
2016-Sep-06 01:33N 01°17' E 103°46'0 0.1
2016-Sep-06 00:27N 01°17' E 103°46'0 0.1
2016-Sep-05 23:33N 01°17' E 103°46'0 0.1
2016-Sep-05 22:21N 01°17' E 103°46'0 0.0
2016-Sep-05 21:33N 01°17' E 103°46'0 0.1
2016-Sep-05 20:33N 01°17' E 103°46'0 0.1
2016-Sep-05 19:33N 01°17' E 103°46'1 0.9
2016-Sep-05 18:33N 01°16' E 103°46'1 1.0
2016-Sep-05 17:29N 01°15' E 103°47'0 0.0
2016-Sep-05 16:29N 01°15' E 103°47'0 0.1
2016-Sep-05 15:29N 01°15' E 103°47'0 0.2
2016-Sep-05 14:33N 01°15' E 103°47'6 5.9
2016-Sep-05 13:33N 01°14' E 103°53'1 0.6
2016-Sep-05 12:32N 01°15' E 103°53'1 0.6
2016-Sep-05 11:33N 01°14' E 103°53'7 6.8
2016-Sep-05 10:34N 01°15' E 104°00'  
Track history (hours):
 
Tides and Currents Weather Stations Pressure Air Temp Water Temp Dewpoint Dewpoint Depression Visibility Wind Speed Wind Dir Waves Ship Positions

Ever Diamond

Last reported at 2016-Sep-06 17:33 UTC. Time now 2016-Oct-01 12:03 UTC.
Position N 01°53' E 102°21'.
Warning: this ship's position is 24 days out of date.

Type: Ship (hazmat cat D). MMSI: 354893000.

Date/timePositionNaut miles runAvg speedWind from/ knotsBaromVisibWave heightAir tempDewpointWater temp
2016-Sep-06 17:33N 01°53' E 102°21'1312.7
2016-Sep-06 16:32N 01°48' E 102°33'7612.7
2016-Sep-06 10:33N 01°13' E 103°40'7 7.0
2016-Sep-06 09:33N 01°17' E 103°46'0 0.1
2016-Sep-06 08:33N 01°17' E 103°46'0 0.1
2016-Sep-06 07:33N 01°17' E 103°46'0 0.0
2016-Sep-06 06:33N 01°17' E 103°46'0 0.0
2016-Sep-06 04:15N 01°17' E 103°46'0 0.0
2016-Sep-06 03:18N 01°17' E 103°46'0 0.1
2016-Sep-06 02:24N 01°17' E 103°46'0 0.1
2016-Sep-06 01:33N 01°17' E 103°46'0 0.1
2016-Sep-06 00:27N 01°17' E 103°46'0 0.1
2016-Sep-05 23:33N 01°17' E 103°46'0 0.1
2016-Sep-05 22:21N 01°17' E 103°46'0 0.0
2016-Sep-05 21:33N 01°17' E 103°46'0 0.1
2016-Sep-05 20:33N 01°17' E 103°46'0 0.1
2016-Sep-05 19:33N 01°17' E 103°46'1 0.9
2016-Sep-05 18:33N 01°16' E 103°46'1 1.0
2016-Sep-05 17:29N 01°15' E 103°47'0 0.0
2016-Sep-05 16:29N 01°15' E 103°47'0 0.1
2016-Sep-05 15:29N 01°15' E 103°47'0 0.2
2016-Sep-05 14:33N 01°15' E 103°47'6 5.9
2016-Sep-05 13:33N 01°14' E 103°53'1 0.6
2016-Sep-05 12:32N 01°15' E 103°53'1 0.6
2016-Sep-05 11:33N 01°14' E 103°53'7 6.8
2016-Sep-05 10:34N 01°15' E 104°00'  

Dump ship's entire track history